Time;durP1;ratioP1;P1;durP2;ratioP2;P2;SDS_P1;SDS_P2;PMS_P1;PMS_P2;Temp;Humidity;BMP_temperature;BMP_pressure;BME280_temperature;BME280_humidity;BME280_pressure;Samples;Min_cycle;Max_cycle;Signal;HPM_P1;HPM_P2
2023/08/15 08:47:50;;;;;;;10.88;3.50;;;;;;;20.23;100.00;101337.50;5108759;27;20410;-65
2023/08/15 08:50:16;;;;;;;11.63;3.65;;;;;;;20.27;100.00;101338.56;5110310;28;20106;-66
2023/08/15 08:52:48;;;;;;;11.15;3.65;;;;;;;20.28;100.00;101334.72;5110442;28;20031;-67
2023/08/15 08:55:13;;;;;;;13.90;3.67;;;;;;;20.40;100.00;101336.34;5110484;28;20423;-65
2023/08/15 08:57:40;;;;;;;13.77;3.75;;;;;;;20.53;100.00;101336.56;5108704;28;20066;-65
2023/08/15 09:00:10;;;;;;;11.38;3.55;;;;;;;20.65;100.00;101344.53;5109993;28;20374;-66
2023/08/15 09:02:35;;;;;;;8.90;3.38;;;;;;;20.76;100.00;101347.22;5065417;28;20106;-66
2023/08/15 09:05:03;;;;;;;12.57;3.70;;;;;;;20.89;100.00;101347.47;5069679;28;20020;-67
2023/08/15 09:07:32;;;;;;;11.50;3.60;;;;;;;21.01;100.00;101347.09;5067313;28;20100;-67
2023/08/15 09:09:57;;;;;;;10.88;3.47;;;;;;;21.03;100.00;101336.66;5069673;28;20029;-65
2023/08/15 09:12:37;;;;;;;10.18;3.22;;;;;;;21.08;100.00;101346.00;5069320;28;20020;-66
2023/08/15 09:15:07;;;;;;;12.95;3.95;;;;;;;21.02;100.00;101348.75;5100927;28;20032;-67
2023/08/15 09:17:33;;;;;;;11.75;3.72;;;;;;;21.13;100.00;101343.19;5068564;28;20028;-67
2023/08/15 09:20:09;;;;;;;10.38;3.28;;;;;;;21.19;100.00;101353.88;5069516;28;20090;-66
2023/08/15 09:22:34;;;;;;;10.20;3.03;;;;;;;21.22;100.00;101349.75;5049397;28;20112;-67
2023/08/15 09:24:59;;;;;;;9.52;3.20;;;;;;;21.27;100.00;101349.69;5049652;28;20104;-66
2023/08/15 09:27:25;;;;;;;10.90;3.42;;;;;;;21.22;100.00;101352.50;5046981;28;20021;-68
2023/08/15 09:29:50;;;;;;;11.75;3.15;;;;;;;21.25;100.00;101351.94;5048024;28;20052;-67
2023/08/15 09:32:16;;;;;;;12.73;3.10;;;;;;;21.30;100.00;101360.13;5048684;28;20609;-67
2023/08/15 09:34:41;;;;;;;11.32;3.30;;;;;;;21.37;100.00;101366.16;5049453;28;20337;-66
2023/08/15 09:37:07;;;;;;;9.27;2.80;;;;;;;21.49;100.00;101365.00;5034661;28;20029;-68
2023/08/15 09:39:33;;;;;;;10.25;3.10;;;;;;;21.55;100.00;101370.19;5028660;28;20033;-67
2023/08/15 09:41:58;;;;;;;11.00;3.53;;;;;;;21.66;100.00;101354.41;5027883;28;20040;-67
2023/08/15 09:44:32;;;;;;;12.10;3.80;;;;;;;21.63;100.00;101362.44;5028728;28;20480;-67
2023/08/15 09:46:59;;;;;;;8.80;3.38;;;;;;;21.58;100.00;101366.06;5039896;28;20071;-66
2023/08/15 09:49:26;;;;;;;10.63;3.10;;;;;;;21.66;100.00;101368.19;5046890;28;20033;-66
2023/08/15 09:51:51;;;;;;;12.65;3.80;;;;;;;21.75;100.00;101366.44;5048821;28;20036;-67
2023/08/15 09:54:18;;;;;;;8.90;3.08;;;;;;;21.84;100.00;101371.34;5048616;28;20021;-67
2023/08/15 09:56:44;;;;;;;12.02;3.00;;;;;;;21.92;100.00;101370.72;5047832;28;20107;-66
2023/08/15 09:59:09;;;;;;;9.35;3.10;;;;;;;21.92;100.00;101381.75;5033595;28;20116;-67
2023/08/15 10:01:38;;;;;;;10.27;3.08;;;;;;;21.95;100.00;101383.91;5027094;28;20046;-66
2023/08/15 10:04:07;;;;;;;7.90;2.53;;;;;;;21.89;100.00;101390.59;5024531;28;20065;-67
2023/08/15 10:06:34;;;;;;;16.08;3.53;;;;;;;21.79;100.00;101399.78;5021374;28;20031;-67
2023/08/15 10:09:00;;;;;;;8.02;3.10;;;;;;;21.81;100.00;101397.53;5023928;28;20030;-67
2023/08/15 10:11:27;;;;;;;12.32;3.00;;;;;;;21.85;100.00;101408.81;5014965;28;20476;-67
2023/08/15 10:13:53;;;;;;;7.07;2.85;;;;;;;21.84;100.00;101404.41;5014137;28;20405;-66
2023/08/15 10:16:19;;;;;;;10.38;2.92;;;;;;;21.88;100.00;101395.28;5015084;28;20022;-68
2023/08/15 10:18:53;;;;;;;11.45;3.00;;;;;;;21.93;100.00;101399.94;5022664;28;20025;-67
2023/08/15 10:21:18;;;;;;;8.77;2.97;;;;;;;22.02;100.00;101402.91;5034751;28;20025;-68
2023/08/15 10:23:43;;;;;;;11.23;3.13;;;;;;;22.05;100.00;101397.63;5035003;28;20044;-69
2023/08/15 10:26:09;;;;;;;8.52;2.90;;;;;;;22.02;100.00;101400.94;5034905;28;20025;-70
2023/08/15 10:28:34;;;;;;;8.57;2.97;;;;;;;22.05;100.00;101402.31;5026026;28;20104;-64
2023/08/15 10:31:00;;;;;;;9.80;2.90;;;;;;;22.16;100.00;101403.03;5021015;28;20144;-71
2023/08/15 10:33:29;;;;;;;8.55;2.50;;;;;;;22.16;100.00;101406.59;5015283;28;20026;-70
2023/08/15 10:35:54;;;;;;;9.07;2.90;;;;;;;22.13;100.00;101410.78;5027420;28;20041;-68
2023/08/15 10:38:21;;;;;;;7.70;2.53;;;;;;;22.13;100.00;101412.69;5021011;28;20029;-66
2023/08/15 10:40:47;;;;;;;9.68;2.50;;;;;;;22.17;100.00;101416.53;5034344;28;20096;-68
2023/08/15 10:43:15;;;;;;;10.77;2.83;;;;;;;22.15;100.00;101407.75;5032337;28;20428;-67
2023/08/15 10:45:52;;;;;;;8.45;2.40;;;;;;;22.31;100.00;101413.94;5033943;28;20032;-66
2023/08/15 10:48:50;;;;;;;8.50;2.50;;;;;;;22.59;100.00;101412.28;5026094;28;20033;-67
2023/08/15 10:51:27;;;;;;;9.25;2.80;;;;;;;22.62;100.00;101419.97;5065797;28;20056;-69
2023/08/15 10:53:55;;;;;;;10.55;2.72;;;;;;;22.71;93.61;101411.88;5029997;28;20449;-69
2023/08/15 10:56:32;;;;;;;8.07;2.45;;;;;;;22.80;100.00;101406.53;5018147;28;20025;-68
2023/08/15 10:58:58;;;;;;;5.90;2.30;;;;;;;22.90;95.54;101411.09;5032251;28;20025;-68
2023/08/15 11:01:26;;;;;;;10.45;2.78;;;;;;;23.03;90.83;101399.34;5030731;28;20376;-66
2023/08/15 11:03:53;;;;;;;6.82;2.42;;;;;;;23.29;96.79;101404.53;5021909;28;20026;-68
2023/08/15 11:06:19;;;;;;;9.60;2.50;;;;;;;23.40;86.73;101406.06;5014090;28;20034;-67
2023/08/15 11:08:47;;;;;;;8.25;2.35;;;;;;;23.52;87.48;101411.94;5014013;28;20038;-67
2023/08/15 11:11:13;;;;;;;7.25;2.50;;;;;;;23.53;90.06;101405.28;5013821;28;20412;-67
2023/08/15 11:13:44;;;;;;;10.70;2.40;;;;;;;23.48;88.51;101405.38;5017363;28;20129;-66
2023/08/15 11:16:10;;;;;;;7.55;2.60;;;;;;;23.42;85.88;101405.75;5014326;28;20135;-68
2023/08/15 11:18:36;;;;;;;7.68;2.33;;;;;;;23.35;83.54;101400.59;5013988;28;20065;-66
2023/08/15 11:21:03;;;;;;;5.20;2.38;;;;;;;23.50;88.29;101413.34;5013806;28;20032;-68
2023/08/15 11:23:29;;;;;;;9.90;2.40;;;;;;;23.53;80.49;101412.75;5027814;28;20100;-67
2023/08/15 11:26:01;;;;;;;7.07;2.20;;;;;;;23.73;84.17;101406.09;5032999;28;20123;-69
2023/08/15 11:28:27;;;;;;;8.20;2.53;;;;;;;23.70;77.54;101409.44;5033067;28;20500;-67
2023/08/15 11:30:52;;;;;;;10.05;2.75;;;;;;;23.66;75.38;101409.25;5027887;28;20029;-66
2023/08/15 11:33:18;;;;;;;11.05;3.00;;;;;;;23.59;79.25;101411.56;5029368;28;20021;-68
2023/08/15 11:35:46;;;;;;;10.40;2.55;;;;;;;23.47;77.42;101423.06;5033496;28;20072;-69
2023/08/15 11:38:12;;;;;;;9.23;2.40;;;;;;;23.37;77.17;101420.47;5031411;28;20022;-69
2023/08/15 11:40:37;;;;;;;7.50;2.03;;;;;;;23.35;80.08;101422.69;5032022;28;20029;-76
2023/08/15 11:43:03;;;;;;;8.80;2.78;;;;;;;23.21;88.02;101422.59;5022070;28;20518;-69
2023/08/15 11:45:32;;;;;;;8.85;2.60;;;;;;;23.09;95.44;101423.03;5028628;28;20049;-67
2023/08/15 11:47:59;;;;;;;8.65;2.53;;;;;;;23.05;100.00;101419.19;5032911;28;20021;-66
2023/08/15 11:50:26;;;;;;;6.60;2.50;;;;;;;22.96;99.63;101434.75;5030869;28;20036;-68
2023/08/15 11:52:52;;;;;;;8.50;2.85;;;;;;;22.86;100.00;101432.13;5032214;28;20087;-67
2023/08/15 11:55:21;;;;;;;10.48;2.88;;;;;;;22.79;100.00;101426.97;5032862;28;20030;-67
2023/08/15 11:57:47;;;;;;;8.70;2.78;;;;;;;22.74;100.00;101435.31;5031870;28;20445;-68
2023/08/15 12:00:15;;;;;;;7.70;2.55;;;;;;;22.68;100.00;101436.44;5014939;28;20033;-65
2023/08/15 12:02:58;;;;;;;8.48;2.72;;;;;;;22.73;100.00;101430.91;5026955;28;20037;-65
2023/08/15 12:05:24;;;;;;;8.52;2.55;;;;;;;22.82;100.00;101431.88;5032896;28;20071;-66
2023/08/15 12:07:49;;;;;;;7.03;2.55;;;;;;;22.94;96.10;101429.53;5029954;28;20041;-68
2023/08/15 12:10:16;;;;;;;9.77;2.70;;;;;;;23.00;96.47;101430.28;5023390;28;20029;-68
2023/08/15 12:12:44;;;;;;;8.40;2.92;;;;;;;23.04;92.35;101436.88;5032758;28;20030;-65
2023/08/15 12:15:11;;;;;;;6.95;2.50;;;;;;;23.15;91.49;101429.31;5031037;28;20057;-67
2023/08/15 12:17:38;;;;;;;8.20;2.63;;;;;;;23.21;92.94;101430.06;5031434;28;20033;-65
2023/08/15 12:20:14;;;;;;;9.13;2.50;;;;;;;23.19;90.87;101427.63;5017112;28;20033;-65
2023/08/15 12:22:41;;;;;;;7.55;2.78;;;;;;;23.34;91.30;101423.78;5012598;28;20030;-66
2023/08/15 12:25:10;;;;;;;7.90;2.70;;;;;;;23.56;78.42;101419.63;5011625;28;20037;-68
2023/08/15 12:27:39;;;;;;;7.95;2.90;;;;;;;23.90;83.21;101413.88;5011050;28;20032;-66
2023/08/15 12:30:05;;;;;;;6.80;2.75;;;;;;;23.98;83.46;101418.72;5013420;28;20108;-67
2023/08/15 12:32:31;;;;;;;8.18;2.80;;;;;;;23.83;83.56;101419.75;5026815;28;20033;-67
2023/08/15 12:34:57;;;;;;;9.13;2.88;;;;;;;23.97;84.79;101421.78;5032448;28;20025;-67
2023/08/15 12:37:22;;;;;;;11.32;2.83;;;;;;;24.24;86.87;101423.78;5063984;28;20079;-67
2023/08/15 12:39:48;;;;;;;10.98;2.92;;;;;;;24.40;81.60;101421.59;5032317;28;20071;-67
2023/08/15 12:42:14;;;;;;;8.52;2.88;;;;;;;24.46;76.76;101423.13;5028241;28;20026;-67
2023/08/15 12:44:43;;;;;;;8.35;3.00;;;;;;;24.63;76.45;101421.75;5012200;28;20048;-68
2023/08/15 12:47:09;;;;;;;11.52;2.90;;;;;;;24.70;72.71;101413.81;5012100;28;20072;-68
2023/08/15 12:49:36;;;;;;;6.80;2.40;;;;;;;24.80;73.86;101421.94;5012397;28;20025;-69
2023/08/15 12:52:02;;;;;;;8.63;2.58;;;;;;;24.94;71.99;101414.44;5013483;28;20472;-69
2023/08/15 12:54:27;;;;;;;9.25;2.60;;;;;;;24.94;68.74;101419.16;5012589;28;20060;-69
2023/08/15 12:56:52;;;;;;;8.63;2.38;;;;;;;25.02;69.97;101417.63;5013007;28;20117;-69
2023/08/15 12:59:18;;;;;;;6.05;2.10;;;;;;;25.06;64.43;101424.16;5012483;28;20091;-69
2023/08/15 13:01:43;;;;;;;5.70;2.38;;;;;;;24.91;63.70;101428.06;5016964;28;20048;-68
2023/08/15 13:04:12;;;;;;;6.38;2.03;;;;;;;25.11;66.52;101426.84;5023358;28;20456;-68
2023/08/15 13:06:38;;;;;;;9.10;2.60;;;;;;;25.18;64.83;101426.41;5064127;28;20345;-68
2023/08/15 13:09:03;;;;;;;8.10;2.80;;;;;;;24.95;63.13;101418.84;5032138;28;20032;-68
2023/08/15 13:11:28;;;;;;;7.32;2.05;;;;;;;24.99;64.21;101423.78;5032151;28;20034;-68
2023/08/15 13:13:54;;;;;;;4.78;2.10;;;;;;;24.95;63.30;101421.59;5014119;28;20050;-68
2023/08/15 13:16:19;;;;;;;4.75;1.95;;;;;;;24.87;63.54;101422.34;5012575;28;20029;-68
2023/08/15 13:18:44;;;;;;;6.10;2.35;;;;;;;24.86;63.69;101428.19;5012361;28;20028;-68
2023/08/15 13:21:10;;;;;;;5.63;1.90;;;;;;;25.01;62.91;101425.09;5012221;28;20511;-68
2023/08/15 13:23:35;;;;;;;7.63;2.58;;;;;;;25.10;64.95;101425.19;5011490;28;20132;-70
2023/08/15 13:26:00;;;;;;;7.63;2.15;;;;;;;25.01;64.14;101427.88;5028431;28;20056;-69
2023/08/15 13:28:26;;;;;;;6.20;2.22;;;;;;;25.06;65.08;101426.94;5032044;28;20022;-69
2023/08/15 13:30:51;;;;;;;5.50;2.20;;;;;;;25.31;64.62;101425.59;5064266;28;20030;-70
2023/08/15 13:33:17;;;;;;;5.88;1.90;;;;;;;25.38;62.88;101425.16;5032117;28;20449;-69
2023/08/15 13:35:42;;;;;;;7.07;2.17;;;;;;;25.47;60.59;101424.13;5034929;28;20029;-68
2023/08/15 13:38:07;;;;;;;4.55;2.10;;;;;;;25.68;60.26;101426.44;5035887;28;20056;-69
2023/08/15 13:40:33;;;;;;;5.75;2.13;;;;;;;25.82;59.82;101420.81;5035606;28;20444;-67
2023/08/15 13:42:59;;;;;;;5.15;2.22;;;;;;;25.86;58.79;101430.13;5023947;28;20577;-67
2023/08/15 13:45:25;;;;;;;5.55;2.10;;;;;;;25.98;57.83;101426.78;5034342;28;20076;-66
2023/08/15 13:47:50;;;;;;;6.32;2.10;;;;;;;25.88;57.41;101427.88;5034721;28;20627;-67
2023/08/15 13:50:16;;;;;;;6.15;1.90;;;;;;;25.80;59.13;101423.06;5035144;28;20018;-70
2023/08/15 13:52:42;;;;;;;6.65;1.85;;;;;;;25.64;60.17;101423.44;5033925;28;20465;-68
2023/08/15 13:55:07;;;;;;;5.38;2.00;;;;;;;25.69;60.15;101430.00;5035069;28;20087;-67
2023/08/15 13:57:33;;;;;;;6.35;2.20;;;;;;;25.96;62.95;101438.19;5033116;28;20029;-68
2023/08/15 13:59:58;;;;;;;8.95;2.80;;;;;;;26.02;63.44;101438.13;5027798;28;20032;-68
2023/08/15 14:02:24;;;;;;;10.73;2.33;;;;;;;25.95;60.86;101436.56;5026614;28;20045;-67
2023/08/15 14:04:49;;;;;;;8.23;2.97;;;;;;;26.05;60.33;101431.94;5034148;28;20025;-67
2023/08/15 14:07:15;;;;;;;6.53;2.50;;;;;;;25.91;59.28;101438.34;5031595;28;20108;-67
2023/08/15 14:09:40;;;;;;;6.38;2.33;;;;;;;26.04;62.22;101427.50;5035074;28;20460;-68
2023/08/15 14:12:06;;;;;;;7.15;2.22;;;;;;;26.27;58.39;101433.84;5034440;28;20457;-67
2023/08/15 14:14:31;;;;;;;5.65;2.42;;;;;;;26.50;58.63;101424.34;5063832;28;20030;-67
2023/08/15 14:16:56;;;;;;;6.00;2.38;;;;;;;26.57;55.89;101425.84;5033860;28;20021;-67
2023/08/15 14:19:21;;;;;;;4.93;2.15;;;;;;;26.63;56.03;101424.56;5025574;28;20639;-67
2023/08/15 14:21:47;;;;;;;7.65;2.47;;;;;;;26.70;54.92;101428.53;5029997;28;20024;-67
2023/08/15 14:24:12;;;;;;;6.40;2.17;;;;;;;26.75;55.10;101426.75;5017909;28;20025;-67
2023/08/15 14:26:37;;;;;;;4.95;2.17;;;;;;;26.78;57.05;101426.13;5014912;28;20025;-68
2023/08/15 14:29:03;;;;;;;7.20;2.50;;;;;;;26.82;56.72;101427.13;5015226;28;20018;-75
2023/08/15 14:31:29;;;;;;;10.60;2.95;;;;;;;26.48;60.03;101423.00;5017391;28;20117;-73
2023/08/15 14:33:54;;;;;;;4.80;2.50;;;;;;;26.18;63.75;101431.84;5034652;28;20044;-75
2023/08/15 14:36:20;;;;;;;6.38;2.75;;;;;;;26.28;64.60;101435.50;5024368;28;20088;-73
2023/08/15 14:38:45;;;;;;;7.85;2.63;;;;;;;26.52;63.96;101440.69;5013444;28;20026;-70
2023/08/15 14:41:11;;;;;;;7.93;3.00;;;;;;;26.51;61.73;101433.47;5018901;28;20021;-70
2023/08/15 14:43:37;;;;;;;9.43;3.35;;;;;;;26.23;63.41;101438.41;5029353;28;20028;-71
2023/08/15 14:46:02;;;;;;;9.20;2.88;;;;;;;25.93;62.07;101435.25;5020234;28;20388;-71
2023/08/15 14:48:28;;;;;;;7.43;2.95;;;;;;;25.90;65.27;101439.47;5034166;28;20041;-72
2023/08/15 14:50:53;;;;;;;7.78;2.90;;;;;;;26.21;63.07;101441.50;5034628;28;20037;-71
2023/08/15 14:53:19;;;;;;;5.43;2.80;;;;;;;26.00;62.63;101435.66;5034955;28;20444;-70
2023/08/15 14:55:44;;;;;;;7.82;2.80;;;;;;;25.72;63.55;101437.69;5032286;28;20520;-70
2023/08/15 14:58:09;;;;;;;6.80;3.15;;;;;;;25.56;65.57;101437.22;5034368;28;20052;-70
2023/08/15 15:00:35;;;;;;;10.10;2.55;;;;;;;25.42;66.08;101440.84;5031811;28;20534;-71
2023/08/15 15:03:01;;;;;;;6.75;2.80;;;;;;;25.33;69.59;101439.94;5031522;28;20042;-71
2023/08/15 15:05:26;;;;;;;8.18;2.70;;;;;;;25.25;74.59;101438.72;5034350;28;20052;-70
2023/08/15 15:07:51;;;;;;;8.70;2.85;;;;;;;25.11;78.69;101441.50;5032412;28;20029;-71
2023/08/15 15:10:16;;;;;;;6.32;3.30;;;;;;;25.09;74.22;101440.16;5014146;28;20041;-71
2023/08/15 15:12:42;;;;;;;6.50;2.80;;;;;;;25.77;72.16;101443.94;5024579;28;20025;-70
2023/08/15 15:15:10;;;;;;;7.68;2.88;;;;;;;26.45;68.61;101437.53;5033130;28;20063;-71
2023/08/15 15:17:36;;;;;;;7.53;2.75;;;;;;;27.08;63.79;101448.59;5032229;28;20159;-71
2023/08/15 15:20:03;;;;;;;9.75;2.80;;;;;;;27.53;61.33;101448.34;5034000;28;20104;-72
2023/08/15 15:22:28;;;;;;;7.80;2.55;;;;;;;27.91;59.36;101445.72;5027115;28;20022;-72
2023/08/15 15:24:53;;;;;;;6.55;2.75;;;;;;;28.21;57.36;101459.78;5013856;28;20025;-71
2023/08/15 15:27:19;;;;;;;7.82;2.40;;;;;;;28.13;55.54;101457.00;5013509;28;20504;-76
2023/08/15 15:29:44;;;;;;;7.40;2.72;;;;;;;27.89;56.72;101458.34;5012589;28;20572;-72
2023/08/15 15:32:10;;;;;;;6.25;2.45;;;;;;;27.57;59.53;101460.47;5017902;28;20396;-72
2023/08/15 15:34:36;;;;;;;4.93;2.40;;;;;;;27.43;56.75;101459.78;5028956;28;20040;-75
2023/08/15 15:37:08;;;;;;;6.82;2.42;;;;;;;27.20;57.24;101462.66;5034501;28;20357;-81
2023/08/15 15:39:41;;;;;;;6.68;2.42;;;;;;;26.93;59.55;101469.28;5032135;28;20409;-81
2023/08/15 15:42:10;;;;;;;8.05;2.75;;;;;;;26.50;61.77;101456.84;5031468;28;20017;-75
2023/08/15 15:44:36;;;;;;;10.70;2.90;;;;;;;26.26;64.20;101455.22;5032754;28;20099;-74
2023/08/15 15:47:01;;;;;;;3.67;2.22;;;;;;;25.90;66.94;101458.88;5019679;28;20473;-74
2023/08/15 15:49:27;;;;;;;4.70;2.65;;;;;;;25.57;69.63;101458.28;5013471;28;20529;-73
2023/08/15 15:51:52;;;;;;;4.22;2.30;;;;;;;25.29;72.34;101470.22;5016393;28;20021;-73
2023/08/15 15:54:18;;;;;;;5.45;2.40;;;;;;;25.08;76.72;101477.31;5033718;28;20022;-78
2023/08/15 15:56:44;;;;;;;5.13;2.33;;;;;;;24.90;78.91;101470.75;5025524;28;20042;-78
2023/08/15 15:59:10;;;;;;;3.47;2.13;;;;;;;24.71;80.45;101481.91;5012422;28;20033;-77
2023/08/15 16:01:35;;;;;;;5.70;2.35;;;;;;;24.58;84.02;101480.78;5014400;28;20040;-73
